createdAt,value
2018-02-08T00:00:34.420Z,21.00
2018-02-08T00:03:04.435Z,18.50
2018-02-08T00:05:34.749Z,19.92
2018-02-08T00:08:04.696Z,18.10
2018-02-08T00:10:35.021Z,18.50
2018-02-08T00:13:05.474Z,18.67
2018-02-08T00:15:35.585Z,17.65
2018-02-08T00:18:05.695Z,17.30
2018-02-08T00:20:35.956Z,18.98
2018-02-08T00:23:09.341Z,19.25
2018-02-08T00:25:40.245Z,19.25
2018-02-08T00:28:10.340Z,18.35
2018-02-08T00:30:40.499Z,18.23
2018-02-08T00:33:10.469Z,18.58
2018-02-08T00:35:41.619Z,17.55
2018-02-08T00:38:11.563Z,18.12
2018-02-08T00:40:42.399Z,17.83
2018-02-08T00:43:12.426Z,18.65
2018-02-08T00:45:42.779Z,17.95
2018-02-08T00:48:13.524Z,19.48
2018-02-08T00:50:44.582Z,17.55
2018-02-08T00:53:15.872Z,17.12
2018-02-08T00:55:46.074Z,17.92
2018-02-08T01:01:16.968Z,17.70
2018-02-08T01:03:51.104Z,17.90
2018-02-08T01:06:22.782Z,16.92
2018-02-08T01:08:52.855Z,17.85
2018-02-08T01:11:22.787Z,17.65
2018-02-08T01:13:53.100Z,15.00
2018-02-08T01:16:24.133Z,18.35
2018-02-08T01:18:54.004Z,17.02
2018-02-08T01:21:25.483Z,16.27
2018-02-08T01:23:55.397Z,17.87
2018-02-08T01:26:25.348Z,16.58
2018-02-08T01:28:56.115Z,16.33
2018-02-08T01:31:27.155Z,15.60
2018-02-08T01:33:56.933Z,16.17
2018-02-08T01:36:27.019Z,17.60
2018-02-08T01:38:56.994Z,17.87
2018-02-08T01:41:26.982Z,16.73
2018-02-08T01:43:56.910Z,16.75
2018-02-08T01:46:27.658Z,16.15
2018-02-08T01:48:57.558Z,17.90
2018-02-08T01:51:27.573Z,16.62
2018-02-08T01:53:57.727Z,15.32
2018-02-08T01:56:27.896Z,15.75
2018-02-08T01:58:59.043Z,16.23
2018-02-08T02:01:29.733Z,16.90
2018-02-08T02:03:59.754Z,16.48
2018-02-08T02:07:32.361Z,17.00
2018-02-08T02:10:02.460Z,15.90
2018-02-08T02:12:32.311Z,15.65
2018-02-08T02:15:03.507Z,16.58
2018-02-08T02:17:33.306Z,16.02
2018-02-08T02:20:03.809Z,15.60
2018-02-08T02:22:34.248Z,16.58
2018-02-08T02:25:05.224Z,16.37
2018-02-08T02:27:35.501Z,17.02
2018-02-08T02:30:06.646Z,15.30
2018-02-08T02:32:37.504Z,15.02
2018-02-08T02:35:07.945Z,16.27
2018-02-08T02:37:38.149Z,15.65
2018-02-08T02:40:08.310Z,15.82
2018-02-08T02:42:39.015Z,16.45
2018-02-08T02:45:08.901Z,14.73
2018-02-08T02:47:39.540Z,16.00
2018-02-08T02:50:09.414Z,15.15
2018-02-08T02:52:40.812Z,15.55
2018-02-08T02:55:10.835Z,16.20
2018-02-08T02:57:40.943Z,16.48
2018-02-08T03:00:10.925Z,15.48
2018-02-08T03:02:41.256Z,15.70
2018-02-08T03:05:12.279Z,15.13
2018-02-08T03:07:42.276Z,15.85
2018-02-08T03:10:12.325Z,15.25
2018-02-08T03:12:42.553Z,15.25
2018-02-08T03:15:13.161Z,16.30
2018-02-08T03:17:43.261Z,15.50
2018-02-08T03:20:13.184Z,15.38
2018-02-08T03:22:43.193Z,15.20
2018-02-08T03:25:14.033Z,14.50
2018-02-08T03:27:43.937Z,16.25
2018-02-08T03:30:14.507Z,16.05
2018-02-08T03:32:44.529Z,15.13
2018-02-08T03:35:15.206Z,16.58
2018-02-08T03:37:45.080Z,14.75
2018-02-08T03:40:15.724Z,16.23
2018-02-08T03:42:46.052Z,16.27
2018-02-08T03:45:16.817Z,15.85
2018-02-08T03:47:46.966Z,15.90
2018-02-08T03:50:17.060Z,15.60
2018-02-08T03:52:48.312Z,15.23
2018-02-08T03:55:18.623Z,15.43
2018-02-08T03:57:48.591Z,15.63
2018-02-08T04:00:19.195Z,14.68
2018-02-08T04:02:49.019Z,16.55
2018-02-08T04:05:19.570Z,14.68
2018-02-08T04:07:50.471Z,17.23
2018-02-08T04:10:20.456Z,14.40
2018-02-08T04:12:50.215Z,16.45
2018-02-08T04:15:20.215Z,15.38
2018-02-08T04:17:50.016Z,15.30
2018-02-08T04:20:20.368Z,16.30
2018-02-08T04:22:50.210Z,15.63
2018-02-08T04:25:20.906Z,15.85
2018-02-08T04:27:50.726Z,15.98
2018-02-08T04:30:20.752Z,15.77
2018-02-08T04:32:51.074Z,15.10
2018-02-08T04:35:20.929Z,16.05
2018-02-08T04:37:50.858Z,15.80
2018-02-08T04:42:31.663Z,15.40
2018-02-08T04:45:13.291Z,13.65
2018-02-08T04:47:52.563Z,14.57
2018-02-08T04:50:22.595Z,14.68
2018-02-08T04:52:53.334Z,15.20
2018-02-08T04:55:23.395Z,16.20
2018-02-08T04:57:54.173Z,14.43
2018-02-08T05:00:24.057Z,14.55
2018-02-08T05:02:55.179Z,14.65
2018-02-08T05:05:25.249Z,16.77
2018-02-08T05:07:55.200Z,14.93
2018-02-08T05:10:25.533Z,15.65
2018-02-08T05:12:55.624Z,14.63
2018-02-08T05:15:26.224Z,15.43
2018-02-08T05:17:56.291Z,14.43
2018-02-08T05:20:27.052Z,15.77
2018-02-08T05:22:57.556Z,15.57
2018-02-08T05:25:28.333Z,14.57
2018-02-08T05:28:01.511Z,16.77
2018-02-08T05:30:32.364Z,14.95
2018-02-08T05:33:02.400Z,16.15
2018-02-08T05:35:32.552Z,15.00
2018-02-08T05:38:02.650Z,14.75
2018-02-08T05:40:32.666Z,15.55
2018-02-08T05:43:02.769Z,15.07
2018-02-08T05:45:32.805Z,15.75
2018-02-08T05:48:02.924Z,16.45
2018-02-08T05:50:32.997Z,17.30
2018-02-08T05:53:04.055Z,16.52
2018-02-08T05:55:34.277Z,17.48
2018-02-08T05:58:04.638Z,14.75
2018-02-08T06:00:34.938Z,64.53
2018-02-08T06:03:05.511Z,18.33
2018-02-08T06:05:37.149Z,20.73
2018-02-08T06:08:08.192Z,27.20
2018-02-08T06:10:38.124Z,18.27
2018-02-08T06:13:09.776Z,16.73
2018-02-08T06:15:40.143Z,17.85
2018-02-08T06:18:11.718Z,16.75
2018-02-08T06:20:42.009Z,18.80
2018-02-08T06:23:12.937Z,16.92
2018-02-08T06:25:44.034Z,17.42
2018-02-08T06:28:14.296Z,18.98
2018-02-08T06:30:44.914Z,17.80
2018-02-08T06:33:15.332Z,17.37
2018-02-08T06:35:46.188Z,17.10
2018-02-08T06:38:16.322Z,18.27
2018-02-08T06:44:10.634Z,16.23
2018-02-08T06:46:43.106Z,16.85
2018-02-08T06:49:16.344Z,16.20
2018-02-08T06:51:46.953Z,19.17
2018-02-08T06:54:17.172Z,17.10
2018-02-08T06:56:48.610Z,16.35
2018-02-08T06:59:21.978Z,23.67
2018-02-08T07:01:56.741Z,20.27
2018-02-08T07:04:28.079Z,17.85
2018-02-08T07:06:59.981Z,18.20
2018-02-08T07:09:30.805Z,17.62
2018-02-08T07:12:14.249Z,23.83
2018-02-08T07:14:52.332Z,19.42
2018-02-08T07:17:27.794Z,17.35
2018-02-08T07:19:58.565Z,18.33
2018-02-08T07:22:30.126Z,17.95
2018-02-08T07:25:04.328Z,17.42
2018-02-08T07:27:36.951Z,18.08
2018-02-08T07:30:07.726Z,22.87
2018-02-08T07:32:40.129Z,19.30
2018-02-08T07:35:12.640Z,24.83
2018-02-08T07:37:44.665Z,19.25
2018-02-08T07:40:29.947Z,18.77
2018-02-08T07:43:03.493Z,19.20
2018-02-08T07:45:42.210Z,20.23
2018-02-08T07:48:16.954Z,19.10
2018-02-08T07:50:54.621Z,18.23
2018-02-08T07:53:29.149Z,18.75
2018-02-08T07:56:09.704Z,20.02
2018-02-08T07:58:46.263Z,19.37
2018-02-08T08:01:25.256Z,19.85
2018-02-08T08:04:02.753Z,19.48
2018-02-08T08:06:37.075Z,21.05
2018-02-08T08:09:15.593Z,21.85
2018-02-08T08:11:51.870Z,18.80
2018-02-08T08:14:30.573Z,18.52
2018-02-08T08:17:03.832Z,20.90
2018-02-08T08:19:43.573Z,20.27
2018-02-08T08:22:18.540Z,19.50
2018-02-08T08:25:03.991Z,26.30
2018-02-08T08:30:36.384Z,23.35
2018-02-08T08:33:12.269Z,24.27
2018-02-08T08:36:00.608Z,20.95
2018-02-08T08:38:40.685Z,21.15
2018-02-08T08:41:21.575Z,20.40
2018-02-08T08:46:46.761Z,20.50
2018-02-08T08:49:33.606Z,20.37
2018-02-08T08:52:19.914Z,21.45
2018-02-08T08:54:54.896Z,21.48
2018-02-08T08:57:42.217Z,21.37
2018-02-08T09:03:31.727Z,29.73
2018-02-08T09:06:03.962Z,23.85
2018-02-08T09:08:49.939Z,23.27
2018-02-08T09:11:23.754Z,22.40
2018-02-08T09:17:11.784Z,21.55
2018-02-08T09:19:47.277Z,23.55
2018-02-08T09:22:45.700Z,22.77
2018-02-08T09:25:41.339Z,27.52
2018-02-08T09:28:30.834Z,26.52
2018-02-08T09:31:07.369Z,23.12
2018-02-08T09:33:50.826Z,23.80
2018-02-08T09:36:27.961Z,23.35
2018-02-08T09:39:19.441Z,23.55
2018-02-08T09:41:57.828Z,23.60
2018-02-08T09:44:34.134Z,27.00
2018-02-08T09:47:07.867Z,24.17
2018-02-08T09:49:44.528Z,24.17
2018-02-08T09:52:26.695Z,24.87
2018-02-08T09:55:04.247Z,24.30
2018-02-08T09:57:42.067Z,25.00
2018-02-08T10:00:25.791Z,25.75
2018-02-08T10:05:56.299Z,24.23
2018-02-08T10:08:36.212Z,24.98
2018-02-08T10:11:26.761Z,25.12
2018-02-08T10:14:13.194Z,26.15
2018-02-08T10:17:02.290Z,24.90
2018-02-08T10:19:37.574Z,23.70
2018-02-08T10:22:11.824Z,25.05
2018-02-08T10:24:48.837Z,25.62
2018-02-08T10:27:32.769Z,25.80
2018-02-08T10:33:27.378Z,24.00
2018-02-08T10:36:08.392Z,23.58
2018-02-08T10:38:39.227Z,26.70
2018-02-08T10:41:37.549Z,28.48
2018-02-08T10:44:22.861Z,24.48
2018-02-08T10:49:58.104Z,23.48
2018-02-08T10:52:43.510Z,22.15
2018-02-08T10:58:46.880Z,21.08
2018-02-08T11:05:01.038Z,22.25
2018-02-08T11:11:13.804Z,21.58
2018-02-08T11:14:14.519Z,20.30
2018-02-08T11:17:13.382Z,19.15
2018-02-08T11:20:09.800Z,20.05
2018-02-08T11:23:09.323Z,22.37
2018-02-08T11:35:01.296Z,27.30
2018-02-08T11:37:49.423Z,21.65
2018-02-08T11:43:47.746Z,23.25
2018-02-08T11:49:45.249Z,21.12
2018-02-08T11:52:30.791Z,21.23
2018-02-08T11:55:29.935Z,21.52
2018-02-08T11:58:27.394Z,20.90
2018-02-08T12:01:01.888Z,20.58
2018-02-08T12:06:47.926Z,18.05
2018-02-08T12:09:45.701Z,21.37
2018-02-08T12:12:24.370Z,19.58
2018-02-08T12:14:58.080Z,19.70
2018-02-08T12:17:44.066Z,17.70
2018-02-08T12:20:42.062Z,18.05
2018-02-08T12:35:31.912Z,13.98
2018-02-08T12:38:05.558Z,13.32
2018-02-08T12:40:41.223Z,14.68
2018-02-08T12:43:12.153Z,11.93
2018-02-08T12:45:43.213Z,11.07
2018-02-08T12:48:18.141Z,10.88
2018-02-08T12:50:52.719Z,12.25
2018-02-08T12:54:04.783Z,10.73
2018-02-08T12:56:42.893Z,10.38
2018-02-08T12:59:16.754Z,11.00
2018-02-08T13:05:26.665Z,10.07
2018-02-08T13:08:12.033Z,9.55
2018-02-08T13:11:01.690Z,8.65
2018-02-08T13:13:37.623Z,8.88
2018-02-08T13:20:00.195Z,8.95
2018-02-08T13:26:21.116Z,8.45
2018-02-08T13:28:58.951Z,8.57
2018-02-08T13:41:14.656Z,7.97
2018-02-08T13:43:46.031Z,7.72
2018-02-08T13:46:17.536Z,8.50
2018-02-08T13:51:38.143Z,8.55
2018-02-08T13:54:09.529Z,7.62
2018-02-08T14:02:48.952Z,9.10
2018-02-08T14:05:24.893Z,9.27
2018-02-08T14:07:58.423Z,9.57
2018-02-08T14:10:38.472Z,8.52
2018-02-08T14:13:23.399Z,9.63
2018-02-08T14:15:54.580Z,9.75
2018-02-08T14:18:28.727Z,9.48
2018-02-08T14:21:07.417Z,9.13
2018-02-08T14:26:47.626Z,10.32
2018-02-08T14:32:20.458Z,10.13
2018-02-08T14:35:06.500Z,9.48
2018-02-08T14:37:51.236Z,8.00
2018-02-08T14:40:33.927Z,9.20
2018-02-08T14:43:08.557Z,9.30
2018-02-08T14:45:49.501Z,8.00
2018-02-08T14:48:24.397Z,9.50
2018-02-08T14:50:57.436Z,8.82
2018-02-08T14:53:28.155Z,7.10
2018-02-08T14:55:59.824Z,8.38
2018-02-08T14:58:30.426Z,6.70
2018-02-08T15:01:02.090Z,6.62
2018-02-08T15:03:34.764Z,10.50
2018-02-08T15:06:05.254Z,11.85
2018-02-08T15:08:38.223Z,12.48
2018-02-08T15:11:09.049Z,14.77
2018-02-08T15:13:43.522Z,13.60
2018-02-08T15:16:15.083Z,14.35
2018-02-08T15:18:48.495Z,14.02
2018-02-08T15:21:30.823Z,16.30
2018-02-08T15:24:05.415Z,15.23
2018-02-08T15:26:37.537Z,17.95
2018-02-08T15:29:08.260Z,16.37
2018-02-08T15:31:39.766Z,16.80
2018-02-08T15:34:10.404Z,15.48
2018-02-08T15:36:41.237Z,17.30
2018-02-08T15:39:15.322Z,18.92
2018-02-08T15:41:47.677Z,18.25
2018-02-08T15:44:21.722Z,18.60
2018-02-08T15:46:53.113Z,16.70
2018-02-08T15:49:23.919Z,18.00
2018-02-08T15:51:55.557Z,17.55
2018-02-08T15:54:27.447Z,18.17
2018-02-08T15:59:41.822Z,16.77
2018-02-08T16:02:12.843Z,17.55
2018-02-08T16:04:43.870Z,16.15
2018-02-08T16:10:15.569Z,17.52
2018-02-08T16:12:50.583Z,18.85
2018-02-08T16:15:22.151Z,17.20
2018-02-08T16:17:52.796Z,17.02
2018-02-08T16:20:25.668Z,16.98
2018-02-08T16:22:57.630Z,18.77
2018-02-08T16:25:33.126Z,23.92
2018-02-08T16:28:03.897Z,23.77
2018-02-08T16:33:24.085Z,19.30
2018-02-08T16:42:06.322Z,20.52
2018-02-08T16:44:38.573Z,19.42
2018-02-08T16:47:13.099Z,20.92
2018-02-08T16:49:46.799Z,17.67
2018-02-08T16:52:21.604Z,18.42
2018-02-08T16:55:04.739Z,18.12
2018-02-08T17:01:23.980Z,16.70
2018-02-08T17:04:10.867Z,16.20
2018-02-08T17:13:52.826Z,21.95
2018-02-08T17:19:31.946Z,30.37
2018-02-08T17:22:18.472Z,31.80
2018-02-08T17:24:50.530Z,32.33
2018-02-08T17:27:23.974Z,30.37
2018-02-08T17:29:54.463Z,27.58
2018-02-08T17:32:26.638Z,25.42
2018-02-08T17:35:11.769Z,24.15
2018-02-08T17:37:47.761Z,22.37
2018-02-08T17:40:22.423Z,21.42
2018-02-08T17:43:10.955Z,20.35
2018-02-08T17:45:59.323Z,18.17
2018-02-08T17:48:29.963Z,17.02
2018-02-08T17:51:26.756Z,17.00
2018-02-08T17:57:19.643Z,16.35
2018-02-08T17:59:51.012Z,16.85
2018-02-08T18:02:24.412Z,17.20
2018-02-08T18:04:57.423Z,16.98
2018-02-08T18:07:27.875Z,17.35
2018-02-08T18:09:59.746Z,17.42
2018-02-08T18:12:30.364Z,15.70
2018-02-08T18:15:01.365Z,16.40
2018-02-08T18:17:45.606Z,17.62
2018-02-08T18:20:18.316Z,16.58
2018-02-08T18:22:49.634Z,17.73
2018-02-08T18:25:37.756Z,15.13
2018-02-08T18:28:14.808Z,15.25
2018-02-08T18:30:45.349Z,14.43
2018-02-08T18:33:16.246Z,13.27
2018-02-08T18:35:47.675Z,14.65
2018-02-08T18:38:31.314Z,13.62
2018-02-08T18:41:05.392Z,13.10
2018-02-08T18:43:37.114Z,13.60
2018-02-08T18:46:19.435Z,15.13
2018-02-08T18:48:49.990Z,14.73
2018-02-08T18:51:21.261Z,14.45
2018-02-08T18:53:52.819Z,13.62
2018-02-08T18:56:49.247Z,13.27
2018-02-08T18:59:25.010Z,13.80
2018-02-08T19:05:16.728Z,12.77
2018-02-08T19:07:51.138Z,13.02
2018-02-08T19:10:22.830Z,12.50
2018-02-08T19:12:54.902Z,12.23
2018-02-08T19:15:26.634Z,11.50
2018-02-08T19:18:02.436Z,11.60
2018-02-08T19:21:13.037Z,12.60
2018-02-08T19:26:45.478Z,12.50
2018-02-08T19:35:41.201Z,12.13
2018-02-08T19:44:51.891Z,12.52
2018-02-08T19:47:32.935Z,12.23
2018-02-08T19:50:30.374Z,12.25
2018-02-08T20:05:42.774Z,12.15
2018-02-08T20:12:12.727Z,10.57
2018-02-08T20:18:43.731Z,10.80
2018-02-08T20:27:08.543Z,12.32
2018-02-08T20:30:10.228Z,13.70
2018-02-08T20:32:48.179Z,11.18
2018-02-08T20:38:19.231Z,10.95
2018-02-08T20:40:50.565Z,11.40
2018-02-08T20:46:27.288Z,11.35
2018-02-08T20:49:04.882Z,10.07
2018-02-08T20:51:39.747Z,10.02
2018-02-08T20:54:13.991Z,10.77
2018-02-08T20:56:46.762Z,10.20
2018-02-08T20:59:31.750Z,11.25
2018-02-08T21:07:46.683Z,11.18
2018-02-08T21:10:30.498Z,10.85
2018-02-08T21:13:17.145Z,10.27
2018-02-08T21:15:53.198Z,11.45
2018-02-08T21:18:28.840Z,10.18
2018-02-08T21:23:44.644Z,11.35
2018-02-08T21:26:19.684Z,10.65
2018-02-08T21:28:52.496Z,10.45
2018-02-08T21:31:26.286Z,10.35
2018-02-08T21:37:05.415Z,10.35
2018-02-08T21:39:37.374Z,10.30
2018-02-08T21:42:07.738Z,10.13
2018-02-08T21:44:40.350Z,12.10
2018-02-08T21:47:15.505Z,11.38
2018-02-08T21:49:48.117Z,10.48
2018-02-08T21:52:19.232Z,11.52
2018-02-08T21:54:51.483Z,9.43
2018-02-08T21:57:24.882Z,11.43
2018-02-08T21:59:56.195Z,11.18
2018-02-08T22:02:28.373Z,10.60
2018-02-08T22:05:00.350Z,10.60
2018-02-08T22:07:31.745Z,10.65
2018-02-08T22:10:03.528Z,11.05
2018-02-08T22:12:37.403Z,11.23
2018-02-08T22:15:08.056Z,10.90
2018-02-08T22:17:42.227Z,11.12
2018-02-08T22:20:13.482Z,11.60
2018-02-08T22:22:44.890Z,11.27
2018-02-08T22:25:15.431Z,11.10
2018-02-08T22:27:47.351Z,11.77
2018-02-08T22:30:18.004Z,11.82
2018-02-08T22:32:48.519Z,10.88
2018-02-08T22:35:19.361Z,12.48
2018-02-08T22:37:53.415Z,11.65
2018-02-08T22:40:26.212Z,11.00
2018-02-08T22:42:58.407Z,11.77
2018-02-08T22:45:30.464Z,12.45
2018-02-08T22:48:01.031Z,12.75
2018-02-08T22:50:31.505Z,12.30
2018-02-08T22:53:02.905Z,11.90
2018-02-08T22:55:34.430Z,10.93
2018-02-08T22:58:20.921Z,11.73
2018-02-08T23:00:51.505Z,11.27
2018-02-08T23:03:22.533Z,10.73
2018-02-08T23:05:53.415Z,10.60
2018-02-08T23:08:24.695Z,10.23
2018-02-08T23:10:55.347Z,11.27
2018-02-08T23:13:28.406Z,10.35
2018-02-08T23:15:59.111Z,11.93
2018-02-08T23:18:29.545Z,10.70
2018-02-08T23:21:00.717Z,11.38
2018-02-08T23:23:31.107Z,10.95
2018-02-08T23:26:02.279Z,10.15
2018-02-08T23:28:33.548Z,9.95
2018-02-08T23:31:04.033Z,10.43
2018-02-08T23:33:34.837Z,11.25
2018-02-08T23:36:05.802Z,11.68
2018-02-08T23:38:36.450Z,11.55
2018-02-08T23:41:08.158Z,11.07
2018-02-08T23:43:38.807Z,12.35
2018-02-08T23:46:09.463Z,10.27
2018-02-08T23:48:43.159Z,11.77
2018-02-08T23:51:14.390Z,10.95
2018-02-08T23:53:48.597Z,9.82
2018-02-08T23:56:19.733Z,11.60
2018-02-08T23:58:50.074Z,12.15
